Time;durP1;ratioP1;P1;durP2;ratioP2;P2;SDS_P1;SDS_P2;PMS_P1;PMS_P2;Temp;Humidity;BMP_temperature;BMP_pressure;BME280_temperature;BME280_humidity;BME280_pressure;Samples;Min_cycle;Max_cycle;Signal;HPM_P1;HPM_P2
2021/03/11 00:05:59;;;;;;;30.37;18.87;;;;;;;-3.80;78.26;100949.16;20871927;28;20230;-57
2021/03/11 00:16:00;;;;;;;39.03;20.93;;;;;;;-3.78;79.16;100921.38;20841394;28;20240;-58
2021/03/11 00:26:01;;;;;;;36.40;20.80;;;;;;;-3.67;78.62;100904.88;20819572;28;20258;-57
2021/03/11 00:36:02;;;;;;;29.27;19.40;;;;;;;-3.65;77.60;100904.88;20924079;28;20637;-57
2021/03/11 00:46:02;;;;;;;31.13;19.83;;;;;;;-3.70;78.45;100894.44;20857111;28;20339;-58
2021/03/11 00:56:03;;;;;;;32.80;19.60;;;;;;;-3.85;77.53;100873.53;20929153;28;20280;-57
2021/03/11 01:06:04;;;;;;;30.97;18.43;;;;;;;-3.77;77.70;100900.50;20878390;28;20247;-57
2021/03/11 01:16:05;;;;;;;36.05;20.27;;;;;;;-3.77;77.81;100881.38;20903536;28;20877;-57
2021/03/11 01:26:06;;;;;;;30.50;17.93;;;;;;;-3.86;77.94;100873.50;20869427;28;20238;-58
2021/03/11 01:36:07;;;;;;;32.07;18.23;;;;;;;-4.00;78.10;100863.94;20883864;28;20963;-60
2021/03/11 01:46:08;;;;;;;31.73;18.73;;;;;;;-4.12;78.37;100837.84;20875669;28;20321;-57
2021/03/11 01:56:08;;;;;;;35.30;18.63;;;;;;;-4.03;78.46;100844.81;20893772;28;20249;-57
2021/03/11 02:16:32;;;;;;;27.73;16.60;;;;;;;-4.18;79.89;100822.16;20527080;27;7725799;-58
2021/03/11 02:27:22;;;;;;;26.40;16.40;;;;;;;-4.26;80.69;100809.97;20745603;28;20236;-58
2021/03/11 02:37:48;;;;;;;26.30;15.80;;;;;;;-4.42;80.71;100790.81;20739332;28;20328;-59
2021/03/11 02:47:50;;;;;;;26.77;16.57;;;;;;;-4.47;81.05;100782.13;20782174;28;20739;-58
2021/03/11 02:57:51;;;;;;;32.37;19.17;;;;;;;-4.50;81.03;100771.69;20746225;28;20329;-59
2021/03/11 03:07:54;;;;;;;30.30;17.50;;;;;;;-4.56;81.73;100772.53;20769950;28;20293;-58
2021/03/11 03:17:55;;;;;;;28.47;16.87;;;;;;;-4.61;81.91;100773.38;20856756;28;20279;-58
2021/03/11 03:27:56;;;;;;;29.43;18.33;;;;;;;-4.63;81.76;100759.47;20795723;28;20239;-59
2021/03/11 03:37:56;;;;;;;25.77;16.63;;;;;;;-4.63;81.14;100754.28;20807032;28;20270;-59
2021/03/11 03:58:08;;;;;;;25.50;15.30;;;;;;;-4.65;80.99;100756.88;20503949;27;7827874;-58
2021/03/11 04:08:08;;;;;;;29.57;17.77;;;;;;;-4.75;81.09;100737.75;20769281;28;20232;-61
2021/03/11 04:18:09;;;;;;;28.20;16.63;;;;;;;-4.65;80.95;100736.03;20772344;28;20286;-59
2021/03/11 04:28:10;;;;;;;33.20;17.90;;;;;;;-4.66;80.61;100725.63;20745744;28;20227;-58
2021/03/11 04:38:11;;;;;;;28.57;16.27;;;;;;;-4.64;80.70;100726.50;20743351;28;20213;-60
2021/03/11 04:48:12;;;;;;;24.43;16.17;;;;;;;-4.61;80.66;100721.31;20772220;28;20219;-60
2021/03/11 04:58:12;;;;;;;23.77;14.73;;;;;;;-4.59;79.64;100710.03;20859790;28;20449;-58
2021/03/11 05:08:13;;;;;;;32.73;18.30;;;;;;;-4.44;79.28;100691.84;20799902;28;20259;-69
2021/03/11 05:18:13;;;;;;;32.10;19.53;;;;;;;-4.28;78.30;100695.34;20795949;28;20588;-58
2021/03/11 05:28:14;;;;;;;26.97;16.67;;;;;;;-4.07;78.44;100673.66;20822342;28;20228;-58
2021/03/11 05:38:15;;;;;;;26.63;16.15;;;;;;;-3.74;78.11;100663.22;20792222;28;20219;-58
2021/03/11 05:48:17;;;;;;;24.93;16.23;;;;;;;-3.22;75.88;100638.75;20834298;28;20240;-59
2021/03/11 05:58:19;;;;;;;20.80;15.10;;;;;;;-2.64;75.00;100632.41;20838450;28;20227;-58
2021/03/11 06:08:22;;;;;;;22.10;15.00;;;;;;;-2.12;71.38;100605.91;20830721;28;20247;-58
2021/03/11 06:18:23;;;;;;;22.83;15.73;;;;;;;-1.46;69.00;100603.56;20794839;28;21655;-58
2021/03/11 06:28:47;;;;;;;28.73;15.70;;;;;;;-1.01;66.31;100580.31;20822473;28;20236;-58
2021/03/11 06:38:48;;;;;;;23.17;15.20;;;;;;;-0.56;66.06;100573.56;20803528;28;20231;-57
2021/03/11 06:48:48;;;;;;;21.40;13.40;;;;;;;-0.34;65.94;100526.91;20781398;28;20323;-57
2021/03/11 06:58:56;;;;;;;22.40;15.03;;;;;;;0.43;62.92;100553.50;20816266;28;20247;-54
2021/03/11 07:08:57;;;;;;;27.90;15.80;;;;;;;0.78;64.18;100553.66;20785504;28;20224;-54
2021/03/11 07:19:17;;;;;;;21.83;13.93;;;;;;;1.14;59.63;100536.25;20809387;28;20227;-54
2021/03/11 07:29:19;;;;;;;23.97;14.83;;;;;;;1.62;62.28;100536.88;20772205;28;20290;-53
2021/03/11 07:39:20;;;;;;;20.67;13.13;;;;;;;2.27;61.12;100515.03;20778642;28;20558;-54
2021/03/11 07:49:21;;;;;;;17.60;12.73;;;;;;;2.89;58.89;100510.63;20767970;28;20710;-55
2021/03/11 07:59:22;;;;;;;19.47;13.97;;;;;;;3.26;56.65;100499.78;20812782;28;20231;-54
2021/03/11 08:09:36;;;;;;;18.60;10.77;;;;;;;3.42;55.34;100481.69;20786560;28;20230;-55
2021/03/11 08:19:37;;;;;;;17.70;12.23;;;;;;;3.50;57.29;100469.13;20781767;28;21027;-56
2021/03/11 08:29:37;;;;;;;18.30;12.60;;;;;;;3.83;57.72;100460.06;20790266;28;20231;-55
2021/03/11 08:39:44;;;;;;;21.90;16.20;;;;;;;3.95;57.22;100443.81;20800898;28;21016;-56
2021/03/11 08:49:51;;;;;;;15.43;12.70;;;;;;;3.83;54.96;100431.03;20821772;28;20223;-65
2021/03/11 08:59:52;;;;;;;15.37;12.07;;;;;;;3.91;57.65;100407.00;20823190;28;20223;-58
2021/03/11 09:09:52;;;;;;;16.00;12.20;;;;;;;4.30;55.86;100391.50;20823546;28;20220;-56
2021/03/11 09:20:07;;;;;;;14.67;12.40;;;;;;;4.21;55.31;100365.44;20824196;28;20251;-56
2021/03/11 09:30:12;;;;;;;14.37;10.80;;;;;;;4.43;54.90;100337.28;20822297;28;20310;-56
2021/03/11 09:40:17;;;;;;;12.33;9.27;;;;;;;4.61;54.81;100314.53;20821643;28;20213;-55
2021/03/11 09:50:18;;;;;;;13.03;10.87;;;;;;;4.61;53.04;100278.41;20819546;28;20312;-57
2021/03/11 10:00:19;;;;;;;13.70;11.03;;;;;;;4.69;53.97;100259.59;20821571;28;20211;-56
2021/03/11 10:10:20;;;;;;;12.40;11.10;;;;;;;4.71;53.99;100242.72;20820147;28;20858;-56
2021/03/11 10:20:28;;;;;;;12.67;10.77;;;;;;;5.02;52.41;100217.66;20819681;28;20611;-56
2021/03/11 10:30:30;;;;;;;16.57;11.60;;;;;;;5.12;53.00;100202.25;20818475;28;20220;-56
2021/03/11 10:40:30;;;;;;;16.03;11.90;;;;;;;5.33;52.76;100180.97;20817838;28;20310;-56
2021/03/11 10:50:46;;;;;;;18.30;14.77;;;;;;;5.26;49.83;100154.88;20814304;28;20657;-56
2021/03/11 11:00:48;;;;;;;13.97;11.07;;;;;;;5.34;51.92;100135.06;20815616;28;20219;-57
2021/03/11 11:10:48;;;;;;;14.47;10.70;;;;;;;5.10;52.31;100107.09;20815526;28;20224;-57
2021/03/11 11:20:49;;;;;;;14.63;12.03;;;;;;;4.67;52.40;100081.72;20814184;28;20303;-57
2021/03/11 11:30:50;;;;;;;13.43;10.75;;;;;;;4.63;53.79;100057.19;20812750;28;20232;-56
2021/03/11 11:40:50;;;;;;;14.87;12.00;;;;;;;4.51;54.68;100023.38;20794824;28;20780;-56
2021/03/11 11:50:53;;;;;;;17.40;14.37;;;;;;;4.52;53.40;99974.91;20811937;28;20731;-56
2021/03/11 12:00:53;;;;;;;14.07;12.13;;;;;;;4.41;54.78;99902.34;20813393;28;20689;-56
2021/03/11 12:10:55;;;;;;;18.87;13.23;;;;;;;4.24;53.96;99879.34;20814426;28;20311;-56
2021/03/11 12:20:55;;;;;;;21.17;14.20;;;;;;;4.11;54.63;99863.19;20828472;28;20671;-56
2021/03/11 12:30:56;;;;;;;16.23;12.10;;;;;;;4.07;54.44;99839.66;20828127;28;20327;-57
2021/03/11 12:40:56;;;;;;;16.23;10.33;;;;;;;4.06;55.32;99816.81;20827132;28;20601;-56
2021/03/11 12:50:57;;;;;;;21.20;14.07;;;;;;;4.08;56.15;99805.28;20825446;28;20258;-56
2021/03/11 13:00:57;;;;;;;16.70;12.63;;;;;;;4.29;55.58;99790.19;20825725;28;20460;-56
2021/03/11 13:10:58;;;;;;;16.53;11.33;;;;;;;4.49;55.76;99787.47;20824607;28;20467;-56
2021/03/11 13:20:59;;;;;;;18.00;12.93;;;;;;;4.46;54.75;99779.72;20823781;28;20227;-56
2021/03/11 13:31:00;;;;;;;17.77;13.27;;;;;;;4.39;54.90;99762.44;20823571;28;20602;-56
2021/03/11 13:41:00;;;;;;;15.90;10.90;;;;;;;4.13;55.17;99739.03;20821065;28;20226;-56
2021/03/11 13:51:07;;;;;;;15.20;10.97;;;;;;;4.02;55.55;99720.19;20819365;28;20723;-56
2021/03/11 14:01:08;;;;;;;16.37;11.97;;;;;;;3.97;55.67;99686.97;20819819;28;20227;-56
2021/03/11 14:11:09;;;;;;;17.87;12.40;;;;;;;3.90;56.22;99669.69;20820278;28;20222;-56
2021/03/11 14:21:09;;;;;;;17.20;11.95;;;;;;;3.68;56.41;99644.41;20818212;28;20271;-55
2021/03/11 14:31:10;;;;;;;14.63;10.82;;;;;;;3.61;57.13;99623.59;20818658;28;20619;-55
2021/03/11 14:41:11;;;;;;;18.07;13.57;;;;;;;3.43;57.11;99584.03;20816925;28;20222;-56
2021/03/11 14:51:12;;;;;;;19.37;14.33;;;;;;;3.13;63.61;99566.09;20821456;28;20297;-57
2021/03/11 15:01:13;;;;;;;18.70;13.50;;;;;;;2.12;71.63;99537.22;20815339;28;20882;-56
2021/03/11 15:11:14;;;;;;;17.97;13.77;;;;;;;1.56;78.18;99522.03;20821378;28;20359;-55
2021/03/11 15:21:15;;;;;;;23.90;16.27;;;;;;;1.15;83.63;99538.56;20815060;28;20219;-56
2021/03/11 15:31:15;;;;;;;18.03;13.53;;;;;;;0.69;89.39;99535.03;20814572;28;20303;-56
2021/03/11 15:41:16;;;;;;;23.87;16.33;;;;;;;0.46;96.81;99529.78;20813827;28;20220;-56
2021/03/11 15:51:17;;;;;;;25.67;16.60;;;;;;;0.35;100.00;99498.66;20804389;28;20303;-56
2021/03/11 16:01:17;;;;;;;22.40;15.65;;;;;;;0.33;100.00;99477.72;20785273;28;20239;-55
2021/03/11 16:11:18;;;;;;;25.67;15.80;;;;;;;0.34;100.00;99447.09;20803584;28;20231;-56
2021/03/11 16:21:18;;;;;;;27.77;18.97;;;;;;;0.30;100.00;99414.88;20777751;28;20216;-57
2021/03/11 16:31:20;;;;;;;26.27;17.83;;;;;;;0.28;100.00;99385.19;20797240;28;20220;-55
2021/03/11 16:41:20;;;;;;;28.67;19.47;;;;;;;0.26;100.00;99371.28;20781617;28;20311;-55
2021/03/11 16:51:21;;;;;;;25.53;17.23;;;;;;;0.25;100.00;99353.81;20796359;28;20232;-54
2021/03/11 17:01:22;;;;;;;29.37;20.33;;;;;;;0.26;100.00;99329.31;20795953;28;20220;-54
2021/03/11 17:11:23;;;;;;;27.63;19.47;;;;;;;0.28;100.00;99324.84;20808027;28;20228;-60
2021/03/11 17:21:23;;;;;;;27.40;18.07;;;;;;;0.29;100.00;99292.47;20806984;28;20224;-59
2021/03/11 17:31:28;;;;;;;28.37;19.03;;;;;;;0.33;100.00;99262.59;20796893;28;20232;-62
2021/03/11 17:41:28;;;;;;;38.80;22.90;;;;;;;0.39;100.00;99250.13;20803110;28;20212;-53
2021/03/11 17:51:29;;;;;;;37.65;24.17;;;;;;;0.44;100.00;99243.78;20787812;28;20704;-54
2021/03/11 18:01:29;;;;;;;34.77;22.63;;;;;;;0.49;100.00;99212.94;20802670;28;20300;-54
2021/03/11 18:11:30;;;;;;;36.25;22.38;;;;;;;0.57;100.00;99192.50;20769074;28;20231;-54
2021/03/11 18:21:30;;;;;;;30.25;19.45;;;;;;;0.67;100.00;99182.47;20798997;28;20216;-54
2021/03/11 18:31:32;;;;;;;26.47;17.50;;;;;;;0.49;100.00;99099.25;20790477;28;20220;-53
2021/03/11 18:41:33;;;;;;;34.00;21.53;;;;;;;0.87;100.00;99097.56;20805638;28;20278;-53
2021/03/11 18:51:33;;;;;;;29.80;18.67;;;;;;;0.97;100.00;99091.84;20743964;28;20315;-55
2021/03/11 19:01:34;;;;;;;31.48;18.77;;;;;;;1.12;100.00;99085.03;20772872;28;20239;-56
2021/03/11 19:11:36;;;;;;;31.08;19.77;;;;;;;1.26;100.00;99047.63;20792874;28;20224;-55
2021/03/11 19:21:43;;;;;;;29.07;19.27;;;;;;;1.38;100.00;99054.94;20785425;28;20227;-61
2021/03/11 19:31:52;;;;;;;37.90;23.37;;;;;;;1.48;100.00;99021.19;20761113;28;20239;-59
2021/03/11 19:41:53;;;;;;;36.70;22.87;;;;;;;1.55;100.00;99002.44;20764111;28;20227;-59
2021/03/11 19:51:53;;;;;;;38.43;24.23;;;;;;;1.63;100.00;99002.88;20787543;28;20254;-59
2021/03/11 20:01:54;;;;;;;40.20;24.60;;;;;;;1.73;100.00;98993.63;20768370;28;20285;-58
2021/03/11 20:11:54;;;;;;;47.40;29.03;;;;;;;1.79;100.00;98969.66;20772061;28;20486;-59
2021/03/11 20:21:55;;;;;;;38.03;25.37;;;;;;;1.90;100.00;98963.00;20779168;28;20800;-59
2021/03/11 20:31:55;;;;;;;43.50;26.47;;;;;;;2.00;100.00;98937.94;20784993;28;21097;-58
2021/03/11 20:41:59;;;;;;;44.08;26.13;;;;;;;2.13;100.00;98928.47;20811370;28;20255;-59
2021/03/11 20:52:00;;;;;;;33.83;22.43;;;;;;;2.26;100.00;98931.31;20777754;28;20297;-59
2021/03/11 21:02:02;;;;;;;47.27;28.57;;;;;;;2.34;100.00;98910.69;20711946;28;20217;-59
2021/03/11 21:12:03;;;;;;;43.00;25.93;;;;;;;2.44;100.00;98902.22;20711035;28;20300;-59
2021/03/11 21:22:03;;;;;;;42.80;24.63;;;;;;;2.58;100.00;98898.00;20731343;28;20221;-58
2021/03/11 21:32:04;;;;;;;52.10;29.77;;;;;;;2.66;100.00;98879.97;20714103;28;20951;-57
2021/03/11 21:42:05;;;;;;;54.90;32.03;;;;;;;2.76;100.00;98862.75;20724578;28;20236;-57
2021/03/11 21:52:06;;;;;;;43.93;29.13;;;;;;;2.81;100.00;98855.44;20731881;28;20236;-58
2021/03/11 22:02:06;;;;;;;45.10;28.20;;;;;;;2.87;100.00;98836.66;20797264;28;20279;-57
2021/03/11 22:12:07;;;;;;;39.88;26.40;;;;;;;2.96;100.00;98846.66;20806809;28;20217;-56
2021/03/11 22:22:07;;;;;;;36.77;23.73;;;;;;;3.00;100.00;98844.72;20789452;28;20222;-56
2021/03/11 22:32:08;;;;;;;42.53;27.50;;;;;;;3.06;100.00;98858.38;20807158;28;20234;-56
2021/03/11 22:42:09;;;;;;;40.63;27.27;;;;;;;3.08;100.00;98855.66;20785716;28;20225;-56
2021/03/11 22:52:09;;;;;;;44.07;29.80;;;;;;;3.19;100.00;98848.84;20804632;28;20225;-55
2021/03/11 23:02:10;;;;;;;43.97;30.07;;;;;;;3.28;100.00;98865.03;20786591;28;20308;-55
2021/03/11 23:12:11;;;;;;;46.50;28.10;;;;;;;3.25;100.00;98859.03;20800595;28;20225;-55
2021/03/11 23:22:13;;;;;;;37.27;25.93;;;;;;;3.18;100.00;98836.59;20782061;28;20214;-56
2021/03/11 23:32:14;;;;;;;40.37;23.17;;;;;;;3.11;100.00;98818.59;20793207;28;20761;-55
2021/03/11 23:42:16;;;;;;;44.20;25.83;;;;;;;2.92;100.00;98829.31;20799156;28;20217;-55
2021/03/11 23:52:16;;;;;;;44.80;27.30;;;;;;;2.92;100.00;98831.97;20782040;28;20557;-56
